Pagrindinis puslapis
METAR-TAF:

METAR-TAF

Oro uostai :

Jasai, Rumunija

platuma: 47-10N, ilguma: 027-38E, Aukštis: 102 m

Dabartinis oras

Ataskaita buvo paskelbta 33 minutes, ne 05:30 UTC
Vėjas 5 kt iš Vakarų
Temperatūra 11°C
Drėgmė 40%
Slėgis 1016 hPa
Matomumas 10 km arba daugiau
nėra debesų žemiau 1500 m ir nėra kamuolinių lietaus debesų

METAR: LRIA 100530Z 27005KT CAVOK 11/M02 Q1016

Laikas: 09:03 (06:03 UTC)

Prognozė

Ataskaita buvo paskelbta 1 valandą ir 3 minutes, ne 05:00 UTC
Prognozė galioja nuo 10 metu 06 UTC su 10 metu 15 UTC
Vėjas 6 kt iš Vakarų
Matomumas 10 km arba daugiau
nėra debesų žemiau 1500 m ir nėra kamuolinių lietaus debesų
Tapsmas
nuo 10 metu 06 UTC su 10 metu 08 UTC
Vėjas 13 kt iš Šiaurės/Šiaurės Vakarų
Laikinai
nuo 10 metu 11 UTC su 10 metu 14 UTC
Vėjas 15 kt iš Šiaurės/Šiaurės Vakarų su gūsio iki 25 kt

TAF: LRIA 100500Z 1006/1015 27006KT CAVOK BECMG 1006/1008 33013KT TEMPO 1011/1014 34015G25KT

Orai ataskaitas ir orų prognozės (METAR, TAF).

turimą stotys yra geltonos ir raudonos taškus žemėlapyje.

Perkelti pele per norėdami pamatyti stoties vardą.

Tada spustelėkite, norėdami matyti oro stebėjimo ir prognozės.

Norėdami pakeisti žemėlapį: spustelėkite ant žalios mygtukų su juodo kryžiaus žemyn,; žalią mygtuką su brūkšneliu, jei norite nutolinti; arba žalių rodyklių gretimoms žemėlapius.


METAR-TAF: